createdAt,value
2022-08-09T00:00:08.173Z,1014.37
2022-08-09T00:01:10.522Z,1014.38
2022-08-09T00:02:08.167Z,1014.38
2022-08-09T00:03:10.893Z,1014.40
2022-08-09T00:04:34.154Z,1014.35
2022-08-09T00:06:18.384Z,1014.38
2022-08-09T00:06:18.879Z,1014.37
2022-08-09T00:07:10.819Z,1014.38
2022-08-09T00:08:10.004Z,1014.36
2022-08-09T00:09:07.976Z,1014.34
2022-08-09T00:10:07.992Z,1014.37
2022-08-09T00:11:25.072Z,1014.37
2022-08-09T00:12:07.948Z,1014.31
2022-08-09T00:13:17.114Z,1014.30
2022-08-09T00:14:07.925Z,1014.33
2022-08-09T00:15:07.910Z,1014.35
2022-08-09T00:16:07.984Z,1014.32
2022-08-09T00:17:07.889Z,1014.31
2022-08-09T00:18:11.987Z,1014.33
2022-08-09T00:19:09.429Z,1014.29
2022-08-09T00:20:07.880Z,1014.28
2022-08-09T00:21:08.654Z,1014.29
2022-08-09T00:22:07.842Z,1014.30
2022-08-09T00:23:53.677Z,1014.29
2022-08-09T00:24:07.815Z,1014.30
2022-08-09T00:25:08.527Z,1014.31
2022-08-09T00:26:07.792Z,1014.30
2022-08-09T00:27:07.810Z,1014.31
2022-08-09T00:28:07.773Z,1014.35
2022-08-09T00:29:12.371Z,1014.34
2022-08-09T00:30:23.586Z,1014.35
2022-08-09T00:31:46.737Z,1014.33
2022-08-09T00:32:07.726Z,1014.32
2022-08-09T00:33:07.715Z,1014.32
2022-08-09T00:34:07.703Z,1014.32
2022-08-09T00:35:07.692Z,1014.36
2022-08-09T00:36:07.716Z,1014.38
2022-08-09T00:37:07.672Z,1014.42
2022-08-09T00:38:07.692Z,1014.36
2022-08-09T00:39:16.999Z,1014.37
2022-08-09T00:40:12.956Z,1014.41
2022-08-09T00:41:08.302Z,1014.40
2022-08-09T00:44:10.786Z,1014.43
2022-08-09T00:44:13.324Z,1014.47
2022-08-09T00:44:19.578Z,1014.42
2022-08-09T00:45:14.868Z,1014.48
2022-08-09T00:46:07.571Z,1014.48
2022-08-09T00:47:07.610Z,1014.50
2022-08-09T00:48:07.552Z,1014.46
2022-08-09T00:49:07.548Z,1014.47
2022-08-09T00:50:07.526Z,1014.45
2022-08-09T00:51:12.016Z,1014.44
2022-08-09T00:52:17.324Z,1014.47
2022-08-09T00:53:10.232Z,1014.43
2022-08-09T00:54:07.486Z,1014.43
2022-08-09T00:55:07.482Z,1014.40
2022-08-09T00:56:09.649Z,1014.38
2022-08-09T00:57:10.416Z,1014.40
2022-08-09T00:58:07.443Z,1014.39
2022-08-09T00:59:07.423Z,1014.37
2022-08-09T01:00:21.901Z,1014.37
2022-08-09T01:01:07.428Z,1014.40
2022-08-09T01:02:07.396Z,1014.39
2022-08-09T01:03:07.431Z,1014.40
2022-08-09T01:04:07.378Z,1014.40
2022-08-09T01:05:14.393Z,1014.40
2022-08-09T01:06:17.534Z,1014.43
2022-08-09T01:07:07.334Z,1014.45
2022-08-09T01:08:07.324Z,1014.38
2022-08-09T01:09:09.684Z,1014.36
2022-08-09T01:10:07.303Z,1014.36
2022-08-09T01:11:08.389Z,1014.36
2022-08-09T01:12:08.501Z,1014.37
2022-08-09T01:13:07.362Z,1014.38
2022-08-09T01:14:07.281Z,1014.35
2022-08-09T01:15:15.139Z,1014.32
2022-08-09T01:16:07.237Z,1014.34
2022-08-09T01:17:08.937Z,1014.30
2022-08-09T01:18:07.213Z,1014.27
2022-08-09T01:19:07.229Z,1014.30
2022-08-09T01:20:07.191Z,1014.26
2022-08-09T01:21:07.211Z,1014.27
2022-08-09T01:22:07.229Z,1014.25
2022-08-09T01:24:00.494Z,1014.30
2022-08-09T01:24:07.148Z,1014.29
2022-08-09T01:25:07.135Z,1014.31
2022-08-09T01:26:07.121Z,1014.30
2022-08-09T01:27:07.731Z,1014.23
2022-08-09T01:28:07.115Z,1014.26
2022-08-09T01:29:07.085Z,1014.27
2022-08-09T01:30:07.126Z,1014.27
2022-08-09T01:31:07.082Z,1014.25
2022-08-09T01:32:31.362Z,1014.29
2022-08-09T01:33:07.038Z,1014.23
2022-08-09T01:34:07.041Z,1014.23
2022-08-09T01:35:37.279Z,1014.28
2022-08-09T01:36:07.011Z,1014.29
2022-08-09T01:37:06.993Z,1014.30
2022-08-09T01:38:10.569Z,1014.29
2022-08-09T01:39:06.986Z,1014.28
2022-08-09T01:40:06.967Z,1014.26
2022-08-09T01:41:06.950Z,1014.27
2022-08-09T01:42:11.313Z,1014.24
2022-08-09T01:43:06.984Z,1014.29
2022-08-09T01:44:06.917Z,1014.26
2022-08-09T01:45:06.919Z,1014.25
2022-08-09T01:46:06.891Z,1014.29
2022-08-09T01:47:06.887Z,1014.25
2022-08-09T01:48:06.866Z,1014.29
2022-08-09T01:49:10.702Z,1014.30
2022-08-09T01:50:06.844Z,1014.31
2022-08-09T01:51:06.854Z,1014.35
2022-08-09T01:52:07.548Z,1014.37
2022-08-09T01:53:19.229Z,1014.37
2022-08-09T01:54:06.847Z,1014.36
2022-08-09T01:55:06.802Z,1014.38
2022-08-09T01:56:06.774Z,1014.33
2022-08-09T01:57:08.119Z,1014.38
2022-08-09T01:58:06.763Z,1014.41
2022-08-09T01:59:06.768Z,1014.38
2022-08-09T02:00:08.980Z,1014.34
2022-08-09T02:01:06.765Z,1014.32
2022-08-09T02:02:06.767Z,1014.31
2022-08-09T02:03:06.716Z,1014.36
2022-08-09T02:04:06.680Z,1014.35
2022-08-09T02:05:15.120Z,1014.33
2022-08-09T02:06:07.111Z,1014.39
2022-08-09T02:07:06.668Z,1014.37
2022-08-09T02:08:38.993Z,1014.36
2022-08-09T02:09:06.626Z,1014.37
2022-08-09T02:10:06.625Z,1014.35
2022-08-09T02:11:17.213Z,1014.32
2022-08-09T02:12:06.587Z,1014.33
2022-08-09T02:13:06.586Z,1014.35
2022-08-09T02:14:07.876Z,1014.31
2022-08-09T02:15:07.678Z,1014.35
2022-08-09T02:16:06.546Z,1014.33
2022-08-09T02:17:29.515Z,1014.32
2022-08-09T02:18:10.528Z,1014.32
2022-08-09T02:19:06.522Z,1014.35
2022-08-09T02:20:06.534Z,1014.33
2022-08-09T02:21:06.493Z,1014.32
2022-08-09T02:22:06.485Z,1014.36
2022-08-09T02:23:06.462Z,1014.35
2022-08-09T02:24:06.450Z,1014.36
2022-08-09T02:25:06.698Z,1014.39
2022-08-09T02:26:06.430Z,1014.36
2022-08-09T02:27:06.413Z,1014.36
2022-08-09T02:28:06.402Z,1014.37
2022-08-09T02:29:06.399Z,1014.40
2022-08-09T02:30:06.386Z,1014.35
2022-08-09T02:31:06.371Z,1014.33
2022-08-09T02:32:06.357Z,1014.36
2022-08-09T02:33:10.400Z,1014.40
2022-08-09T02:34:13.847Z,1014.36
2022-08-09T02:35:17.326Z,1014.37
2022-08-09T02:36:06.312Z,1014.38
2022-08-09T02:37:06.700Z,1014.40
2022-08-09T02:38:06.285Z,1014.37
2022-08-09T02:39:06.385Z,1014.34
2022-08-09T02:40:10.306Z,1014.34
2022-08-09T02:41:06.411Z,1014.37
2022-08-09T02:42:06.241Z,1014.37
2022-08-09T02:43:06.255Z,1014.37
2022-08-09T02:44:10.272Z,1014.35
2022-08-09T02:45:06.713Z,1014.35
2022-08-09T02:46:06.204Z,1014.38
2022-08-09T02:47:06.192Z,1014.37
2022-08-09T02:48:06.169Z,1014.36
2022-08-09T02:49:06.169Z,1014.35
2022-08-09T02:50:06.144Z,1014.37
2022-08-09T02:51:06.144Z,1014.36
2022-08-09T02:52:06.147Z,1014.32
2022-08-09T02:53:06.112Z,1014.29
2022-08-09T02:54:06.101Z,1014.29
2022-08-09T02:55:21.025Z,1014.28
2022-08-09T02:56:06.091Z,1014.30
2022-08-09T02:57:14.024Z,1014.23
2022-08-09T02:58:36.110Z,1014.30
2022-08-09T02:59:06.043Z,1014.34
2022-08-09T03:00:21.165Z,1014.29
2022-08-09T03:01:07.746Z,1014.35
2022-08-09T03:02:07.071Z,1014.31
2022-08-09T03:03:06.045Z,1014.32
2022-08-09T03:04:18.396Z,1014.29
2022-08-09T03:05:06.023Z,1014.28
2022-08-09T03:06:05.960Z,1014.27
2022-08-09T03:07:12.525Z,1014.29
2022-08-09T03:08:06.001Z,1014.26
2022-08-09T03:09:05.974Z,1014.26
2022-08-09T03:10:05.911Z,1014.24
2022-08-09T03:11:05.918Z,1014.26
2022-08-09T03:12:09.703Z,1014.26
2022-08-09T03:13:08.249Z,1014.22
2022-08-09T03:14:05.923Z,1014.27
2022-08-09T03:15:05.899Z,1014.24
2022-08-09T03:16:07.248Z,1014.22
2022-08-09T03:17:05.950Z,1014.19
2022-08-09T03:18:10.702Z,1014.22
2022-08-09T03:19:05.891Z,1014.17
2022-08-09T03:20:11.460Z,1014.15
2022-08-09T03:21:05.786Z,1014.18
2022-08-09T03:22:05.812Z,1014.16
2022-08-09T03:23:14.688Z,1014.17
2022-08-09T03:24:05.759Z,1014.18
2022-08-09T03:25:26.955Z,1014.21
2022-08-09T03:26:05.739Z,1014.16
2022-08-09T03:27:07.237Z,1014.19
2022-08-09T03:28:26.232Z,1014.22
2022-08-09T03:29:09.637Z,1014.21
2022-08-09T03:30:05.732Z,1014.26
2022-08-09T03:31:10.516Z,1014.27
2022-08-09T03:32:05.673Z,1014.24
2022-08-09T03:33:16.936Z,1014.20
2022-08-09T03:34:05.631Z,1014.23
2022-08-09T03:35:15.010Z,1014.23
2022-08-09T03:36:13.483Z,1014.25
2022-08-09T03:37:54.161Z,1014.25
2022-08-09T03:38:05.580Z,1014.23
2022-08-09T03:39:05.648Z,1014.23
2022-08-09T03:40:05.635Z,1014.22
2022-08-09T03:41:05.558Z,1014.26
2022-08-09T03:42:06.733Z,1014.30
2022-08-09T03:43:05.525Z,1014.29
2022-08-09T03:44:08.760Z,1014.30
2022-08-09T03:45:05.510Z,1014.29
2022-08-09T03:46:19.988Z,1014.31
2022-08-09T03:47:05.483Z,1014.32
2022-08-09T03:48:05.466Z,1014.32
2022-08-09T03:49:08.312Z,1014.30
2022-08-09T03:50:05.473Z,1014.35
2022-08-09T03:51:05.431Z,1014.33
2022-08-09T03:52:05.418Z,1014.31
2022-08-09T03:53:05.425Z,1014.29
2022-08-09T03:54:05.411Z,1014.32
2022-08-09T03:55:07.526Z,1014.28
2022-08-09T03:56:05.545Z,1014.26
2022-08-09T03:57:18.736Z,1014.24
2022-08-09T03:58:09.868Z,1014.25
2022-08-09T03:59:05.349Z,1014.25
2022-08-09T04:00:05.325Z,1014.23
2022-08-09T04:01:05.366Z,1014.21
2022-08-09T04:02:05.318Z,1014.21
2022-08-09T04:03:05.298Z,1014.25
2022-08-09T04:04:09.932Z,1014.22
2022-08-09T04:05:06.521Z,1014.22
2022-08-09T04:06:05.251Z,1014.19
2022-08-09T04:07:05.306Z,1014.24
2022-08-09T04:08:05.228Z,1014.24
2022-08-09T04:09:11.846Z,1014.26
2022-08-09T04:10:05.204Z,1014.28
2022-08-09T04:11:05.222Z,1014.23
2022-08-09T04:12:05.184Z,1014.26
2022-08-09T04:13:05.177Z,1014.26
2022-08-09T04:14:53.664Z,1014.24
2022-08-09T04:15:11.317Z,1014.28
2022-08-09T04:16:19.736Z,1014.31
2022-08-09T04:17:05.125Z,1014.33
2022-08-09T04:18:05.120Z,1014.34
2022-08-09T04:19:05.107Z,1014.27
2022-08-09T04:20:05.084Z,1014.34
2022-08-09T04:21:05.092Z,1014.35
2022-08-09T04:22:05.062Z,1014.28
2022-08-09T04:23:09.829Z,1014.33
2022-08-09T04:24:05.050Z,1014.36
2022-08-09T04:25:05.040Z,1014.34
2022-08-09T04:26:05.010Z,1014.37
2022-08-09T04:27:05.006Z,1014.42
2022-08-09T04:28:04.999Z,1014.43
2022-08-09T04:29:10.904Z,1014.46
2022-08-09T04:30:04.969Z,1014.48
2022-08-09T04:31:08.000Z,1014.46
2022-08-09T04:32:05.367Z,1014.48
2022-08-09T04:33:04.932Z,1014.49
2022-08-09T04:34:04.932Z,1014.48
2022-08-09T04:35:04.919Z,1014.40
2022-08-09T04:36:04.901Z,1014.49
2022-08-09T04:37:04.936Z,1014.43
2022-08-09T04:38:04.870Z,1014.44
2022-08-09T04:39:04.972Z,1014.45
2022-08-09T04:40:04.849Z,1014.46
2022-08-09T04:41:04.838Z,1014.43
2022-08-09T04:42:04.829Z,1014.49
2022-08-09T04:43:05.586Z,1014.42
2022-08-09T04:44:07.006Z,1014.46
2022-08-09T04:45:04.816Z,1014.45
2022-08-09T04:46:04.773Z,1014.48
2022-08-09T04:47:05.971Z,1014.49
2022-08-09T04:48:09.897Z,1014.55
2022-08-09T04:49:04.777Z,1014.50
2022-08-09T04:50:04.762Z,1014.52
2022-08-09T04:51:04.729Z,1014.49
2022-08-09T04:52:04.705Z,1014.46
2022-08-09T04:53:04.693Z,1014.52
2022-08-09T04:54:04.695Z,1014.54
2022-08-09T04:55:09.353Z,1014.51
2022-08-09T04:56:05.561Z,1014.57
2022-08-09T04:57:04.650Z,1014.59
2022-08-09T04:58:09.112Z,1014.60
2022-08-09T04:59:12.922Z,1014.60
2022-08-09T05:00:05.115Z,1014.62
2022-08-09T05:01:04.603Z,1014.58
2022-08-09T05:02:04.587Z,1014.63
2022-08-09T05:03:41.176Z,1014.62
2022-08-09T05:04:04.605Z,1014.60
2022-08-09T05:05:09.778Z,1014.64
2022-08-09T05:06:07.581Z,1014.65
2022-08-09T05:07:04.562Z,1014.62
2022-08-09T05:08:04.512Z,1014.66
2022-08-09T05:09:04.506Z,1014.67
2022-08-09T05:10:04.576Z,1014.71
2022-08-09T05:11:06.607Z,1014.67
2022-08-09T05:12:04.468Z,1014.70
2022-08-09T05:13:04.513Z,1014.73
2022-08-09T05:14:05.897Z,1014.72
2022-08-09T05:15:11.879Z,1014.71
2022-08-09T05:16:04.479Z,1014.74
2022-08-09T05:17:04.413Z,1014.76
2022-08-09T05:18:42.208Z,1014.74
2022-08-09T05:19:04.384Z,1014.76
2022-08-09T05:20:04.375Z,1014.75
2022-08-09T05:21:10.056Z,1014.77
2022-08-09T05:22:04.349Z,1014.79
2022-08-09T05:23:54.540Z,1014.83
2022-08-09T05:24:04.816Z,1014.84
2022-08-09T05:25:04.320Z,1014.86
2022-08-09T05:26:04.313Z,1014.89
2022-08-09T05:27:04.321Z,1014.84
2022-08-09T05:28:04.288Z,1014.86
2022-08-09T05:29:04.276Z,1014.86
2022-08-09T05:30:04.257Z,1014.82
2022-08-09T05:31:09.331Z,1014.85
2022-08-09T05:32:05.830Z,1014.84
2022-08-09T05:33:04.226Z,1014.83
2022-08-09T05:34:04.214Z,1014.88
2022-08-09T05:35:04.196Z,1014.88
2022-08-09T05:36:04.191Z,1014.86
2022-08-09T05:37:06.019Z,1014.87
2022-08-09T05:38:04.159Z,1014.86
2022-08-09T05:39:04.217Z,1014.87
2022-08-09T05:40:04.201Z,1014.89
2022-08-09T05:41:04.162Z,1014.90
2022-08-09T05:42:04.640Z,1014.92
2022-08-09T05:43:04.111Z,1014.90
2022-08-09T05:44:04.091Z,1014.93
2022-08-09T05:45:04.084Z,1014.90
2022-08-09T05:46:04.072Z,1014.92
2022-08-09T05:47:05.469Z,1014.95
2022-08-09T05:48:04.060Z,1014.93
2022-08-09T05:49:04.036Z,1014.93
2022-08-09T05:50:30.835Z,1014.94
2022-08-09T05:51:29.799Z,1014.92
2022-08-09T05:52:04.052Z,1014.88
2022-08-09T05:53:03.986Z,1014.91
2022-08-09T05:54:05.151Z,1014.92
2022-08-09T05:55:07.320Z,1014.94
2022-08-09T05:56:03.947Z,1014.94
2022-08-09T05:57:03.940Z,1014.93
2022-08-09T05:58:04.097Z,1014.94
2022-08-09T05:59:03.916Z,1014.93
2022-08-09T06:00:03.904Z,1014.93
2022-08-09T06:01:03.911Z,1014.93
2022-08-09T06:02:03.902Z,1014.95
2022-08-09T06:03:04.085Z,1014.97
2022-08-09T06:04:05.936Z,1014.97
2022-08-09T06:05:03.841Z,1015.01
2022-08-09T06:06:05.780Z,1014.96
2022-08-09T06:07:03.837Z,1015.01
2022-08-09T06:08:05.510Z,1014.98
2022-08-09T06:09:05.598Z,1014.98
2022-08-09T06:10:03.812Z,1014.96
2022-08-09T06:11:17.307Z,1015.00
2022-08-09T06:12:03.797Z,1014.97
2022-08-09T06:13:11.707Z,1015.00
2022-08-09T06:14:03.740Z,1014.99
2022-08-09T06:15:08.141Z,1015.05
2022-08-09T06:16:05.008Z,1015.07
2022-08-09T06:17:05.204Z,1015.11
2022-08-09T06:18:03.721Z,1015.05
2022-08-09T06:19:03.682Z,1015.07
2022-08-09T06:20:03.674Z,1015.07
2022-08-09T06:21:04.165Z,1015.12
2022-08-09T06:22:03.652Z,1015.08
2022-08-09T06:23:03.782Z,1015.06
2022-08-09T06:24:03.627Z,1015.08
2022-08-09T06:25:03.626Z,1015.03
2022-08-09T06:26:03.630Z,1015.07
2022-08-09T06:27:03.590Z,1015.09
2022-08-09T06:28:03.625Z,1015.11
2022-08-09T06:29:04.979Z,1015.11
2022-08-09T06:30:08.788Z,1015.13
2022-08-09T06:31:03.544Z,1015.13
2022-08-09T06:32:52.799Z,1015.16
2022-08-09T06:33:30.514Z,1015.21
2022-08-09T06:34:03.509Z,1015.19
2022-08-09T06:35:06.333Z,1015.20
2022-08-09T06:36:03.486Z,1015.20
2022-08-09T06:37:03.482Z,1015.18
2022-08-09T06:38:06.939Z,1015.21
2022-08-09T06:39:08.933Z,1015.22
2022-08-09T06:40:06.818Z,1015.25
2022-08-09T06:41:03.541Z,1015.24
2022-08-09T06:42:09.352Z,1015.27
2022-08-09T06:43:03.409Z,1015.28
2022-08-09T06:44:03.428Z,1015.25
2022-08-09T06:45:09.233Z,1015.27
2022-08-09T06:46:10.352Z,1015.27
2022-08-09T06:47:03.369Z,1015.27
2022-08-09T06:48:03.399Z,1015.29
2022-08-09T06:49:03.344Z,1015.28
2022-08-09T06:50:14.819Z,1015.32
2022-08-09T06:51:04.516Z,1015.34
2022-08-09T06:52:03.310Z,1015.31
2022-08-09T06:53:03.291Z,1015.35
2022-08-09T06:54:03.289Z,1015.29
2022-08-09T06:55:10.277Z,1015.32
2022-08-09T06:56:03.271Z,1015.35
2022-08-09T06:57:03.250Z,1015.35
2022-08-09T06:58:04.737Z,1015.36
2022-08-09T07:00:52.680Z,1015.38
2022-08-09T07:00:55.237Z,1015.39
2022-08-09T07:01:03.224Z,1015.35
2022-08-09T07:02:03.666Z,1015.39
2022-08-09T07:03:05.296Z,1015.37
2022-08-09T07:04:03.863Z,1015.34
2022-08-09T07:05:03.158Z,1015.33
2022-08-09T07:06:05.086Z,1015.34
2022-08-09T07:07:05.062Z,1015.30
2022-08-09T07:08:03.130Z,1015.29
2022-08-09T07:09:03.173Z,1015.34
2022-08-09T07:10:14.292Z,1015.33
2022-08-09T07:11:03.606Z,1015.30
2022-08-09T07:12:03.098Z,1015.30
2022-08-09T07:13:18.534Z,1015.31
2022-08-09T07:14:05.557Z,1015.28
2022-08-09T07:15:03.462Z,1015.34
2022-08-09T07:16:42.047Z,1015.33
2022-08-09T07:17:03.070Z,1015.31
2022-08-09T07:18:03.348Z,1015.36
2022-08-09T07:19:03.010Z,1015.33
2022-08-09T07:20:02.996Z,1015.33
2022-08-09T07:21:03.008Z,1015.36
2022-08-09T07:22:02.975Z,1015.37
2022-08-09T07:23:02.978Z,1015.37
2022-08-09T07:24:02.996Z,1015.39
2022-08-09T07:25:05.570Z,1015.41
2022-08-09T07:26:03.031Z,1015.39
2022-08-09T07:27:02.946Z,1015.43
2022-08-09T07:28:04.202Z,1015.47
2022-08-09T07:29:11.755Z,1015.50
2022-08-09T07:30:02.889Z,1015.49
2022-08-09T07:31:02.880Z,1015.46
2022-08-09T07:32:02.903Z,1015.49
2022-08-09T07:33:02.851Z,1015.49
2022-08-09T07:34:02.844Z,1015.48
2022-08-09T07:35:08.022Z,1015.47
2022-08-09T07:36:02.832Z,1015.49
2022-08-09T07:37:03.631Z,1015.51
2022-08-09T07:38:02.801Z,1015.48
2022-08-09T07:39:02.796Z,1015.43
2022-08-09T07:40:02.821Z,1015.53
2022-08-09T07:41:11.575Z,1015.47
2022-08-09T07:42:02.750Z,1015.48
2022-08-09T07:43:02.744Z,1015.48
2022-08-09T07:44:02.737Z,1015.50
2022-08-09T07:45:06.417Z,1015.52
2022-08-09T07:46:03.101Z,1015.51
2022-08-09T07:47:02.702Z,1015.51
2022-08-09T07:48:04.577Z,1015.52
2022-08-09T07:49:02.681Z,1015.50
2022-08-09T07:50:08.033Z,1015.47
2022-08-09T07:51:09.308Z,1015.47
2022-08-09T07:52:16.647Z,1015.47
2022-08-09T07:53:02.947Z,1015.44
2022-08-09T07:54:05.140Z,1015.43
2022-08-09T07:55:04.017Z,1015.41
2022-08-09T07:56:06.480Z,1015.43
2022-08-09T07:57:02.611Z,1015.45
2022-08-09T07:58:02.581Z,1015.45
2022-08-09T07:59:05.248Z,1015.48
2022-08-09T08:00:02.789Z,1015.50
2022-08-09T08:01:06.688Z,1015.48
2022-08-09T08:02:02.643Z,1015.50
2022-08-09T08:03:04.627Z,1015.51
2022-08-09T08:04:02.576Z,1015.50
2022-08-09T08:05:02.576Z,1015.47
2022-08-09T08:06:02.495Z,1015.49
2022-08-09T08:07:27.052Z,1015.54
2022-08-09T08:09:01.778Z,1015.51
2022-08-09T08:09:07.536Z,1015.46
2022-08-09T08:10:07.768Z,1015.44
2022-08-09T08:11:29.266Z,1015.43
2022-08-09T08:12:11.046Z,1015.47
2022-08-09T08:13:03.931Z,1015.48
2022-08-09T08:14:02.417Z,1015.44
2022-08-09T08:15:02.437Z,1015.46
2022-08-09T08:16:02.397Z,1015.46
2022-08-09T08:17:09.105Z,1015.44
2022-08-09T08:18:02.371Z,1015.43
2022-08-09T08:19:03.100Z,1015.43
2022-08-09T08:20:02.395Z,1015.45
2022-08-09T08:21:02.344Z,1015.46
2022-08-09T08:22:02.327Z,1015.48
2022-08-09T08:23:06.653Z,1015.46
2022-08-09T08:24:12.238Z,1015.53
2022-08-09T08:25:02.302Z,1015.49
2022-08-09T08:26:06.827Z,1015.48
2022-08-09T08:27:02.287Z,1015.54
2022-08-09T08:28:02.267Z,1015.50
2022-08-09T08:29:02.648Z,1015.53
2022-08-09T08:30:03.767Z,1015.50
2022-08-09T08:31:10.562Z,1015.50
2022-08-09T08:32:05.603Z,1015.54
2022-08-09T08:33:02.218Z,1015.51
2022-08-09T08:34:02.209Z,1015.55
2022-08-09T08:35:02.199Z,1015.57
2022-08-09T08:36:03.691Z,1015.52
2022-08-09T08:37:02.203Z,1015.58
2022-08-09T08:38:11.539Z,1015.51
2022-08-09T08:39:02.158Z,1015.57
2022-08-09T08:40:02.192Z,1015.49
2022-08-09T08:41:05.606Z,1015.49
2022-08-09T08:42:02.202Z,1015.47
2022-08-09T08:43:02.133Z,1015.49
2022-08-09T08:44:03.611Z,1015.53
2022-08-09T08:45:13.606Z,1015.55
2022-08-09T08:46:24.837Z,1015.50
2022-08-09T08:47:04.762Z,1015.58
2022-08-09T08:48:02.102Z,1015.58
2022-08-09T08:49:02.057Z,1015.56
2022-08-09T08:50:02.707Z,1015.56
2022-08-09T08:51:02.051Z,1015.61
2022-08-09T08:52:04.247Z,1015.52
2022-08-09T08:53:02.483Z,1015.56
2022-08-09T08:54:03.379Z,1015.54
2022-08-09T08:55:03.748Z,1015.53
2022-08-09T08:56:01.986Z,1015.53
2022-08-09T08:57:02.073Z,1015.55
2022-08-09T08:58:03.003Z,1015.61
2022-08-09T08:59:02.030Z,1015.55
2022-08-09T09:00:01.952Z,1015.56
2022-08-09T09:01:02.070Z,1015.59
2022-08-09T09:02:02.054Z,1015.55
2022-08-09T09:03:12.461Z,1015.55
2022-08-09T09:04:01.907Z,1015.56
2022-08-09T09:05:03.018Z,1015.53
2022-08-09T09:06:05.104Z,1015.55
2022-08-09T09:07:01.879Z,1015.55
2022-08-09T09:08:01.869Z,1015.57
2022-08-09T09:09:01.875Z,1015.53
2022-08-09T09:10:05.106Z,1015.52
2022-08-09T09:11:01.850Z,1015.49
2022-08-09T09:12:01.833Z,1015.53
2022-08-09T09:13:09.314Z,1015.50
2022-08-09T09:14:01.811Z,1015.52
2022-08-09T09:15:01.808Z,1015.49
2022-08-09T09:16:01.792Z,1015.49
2022-08-09T09:17:01.814Z,1015.54
2022-08-09T09:18:01.773Z,1015.52
2022-08-09T09:20:01.808Z,1015.53
2022-08-09T09:21:01.749Z,1015.54
2022-08-09T09:22:03.080Z,1015.58
2022-08-09T09:23:02.404Z,1015.53
2022-08-09T09:24:04.679Z,1015.55
2022-08-09T09:26:04.562Z,1015.53
2022-08-09T09:26:12.504Z,1015.56
2022-08-09T09:27:01.698Z,1015.54
2022-08-09T09:28:03.640Z,1015.56
2022-08-09T09:29:09.991Z,1015.59
2022-08-09T09:30:12.271Z,1015.56
2022-08-09T09:31:01.729Z,1015.56
2022-08-09T09:32:06.987Z,1015.54
2022-08-09T09:33:01.637Z,1015.50
2022-08-09T09:34:01.624Z,1015.49
2022-08-09T09:35:01.640Z,1015.49
2022-08-09T09:36:04.004Z,1015.48
2022-08-09T09:37:01.605Z,1015.49
2022-08-09T09:38:01.592Z,1015.51
2022-08-09T09:39:01.637Z,1015.53
2022-08-09T09:40:02.810Z,1015.47
2022-08-09T09:41:01.637Z,1015.42
2022-08-09T09:42:01.695Z,1015.50
2022-08-09T09:43:01.675Z,1015.38
2022-08-09T09:44:12.574Z,1015.41
2022-08-09T09:45:01.535Z,1015.41
2022-08-09T09:47:01.525Z,1015.37
2022-08-09T09:48:01.517Z,1015.31
2022-08-09T09:49:01.516Z,1015.32
2022-08-09T09:50:14.430Z,1015.27
2022-08-09T09:51:01.499Z,1015.28
2022-08-09T09:52:01.511Z,1015.25
2022-08-09T09:53:01.673Z,1015.23
2022-08-09T09:54:05.553Z,1015.30
2022-08-09T09:55:01.480Z,1015.27
2022-08-09T09:56:04.266Z,1015.20
2022-08-09T09:58:01.174Z,1015.19
2022-08-09T09:58:16.353Z,1015.20
2022-08-09T09:59:01.488Z,1015.22
2022-08-09T10:00:01.457Z,1015.19
2022-08-09T10:01:01.551Z,1015.14
2022-08-09T10:02:01.450Z,1015.18
2022-08-09T10:03:11.553Z,1015.15
2022-08-09T10:04:04.373Z,1015.08
2022-08-09T10:05:01.446Z,1015.15
2022-08-09T10:06:04.749Z,1015.12
2022-08-09T10:07:03.451Z,1015.06
2022-08-09T10:08:26.012Z,1015.03
2022-08-09T10:09:02.773Z,1015.05
2022-08-09T10:10:03.238Z,1014.98
2022-08-09T10:11:06.953Z,1014.99
2022-08-09T10:12:26.942Z,1014.93
2022-08-09T10:13:01.433Z,1014.97
2022-08-09T10:14:01.491Z,1014.95
2022-08-09T10:15:01.417Z,1014.87
2022-08-09T10:16:55.239Z,1014.87
2022-08-09T10:17:11.503Z,1014.87
2022-08-09T10:18:01.410Z,1014.83
2022-08-09T10:19:01.414Z,1014.82
2022-08-09T10:20:01.416Z,1014.81
2022-08-09T10:21:01.408Z,1014.80
2022-08-09T10:22:01.405Z,1014.80
2022-08-09T10:23:01.404Z,1014.79
2022-08-09T10:24:01.418Z,1014.84
2022-08-09T10:25:03.571Z,1014.75
2022-08-09T10:26:06.008Z,1014.76
2022-08-09T10:27:01.401Z,1014.72
2022-08-09T10:28:01.424Z,1014.70
2022-08-09T10:29:36.086Z,1014.74
2022-08-09T10:30:33.445Z,1014.68
2022-08-09T10:33:01.410Z,1014.78
2022-08-09T10:34:08.107Z,1014.74
2022-08-09T10:35:01.398Z,1014.79
2022-08-09T10:36:02.235Z,1014.73
2022-08-09T10:37:01.431Z,1014.82
2022-08-09T10:38:01.397Z,1014.78
2022-08-09T10:39:01.398Z,1014.78
2022-08-09T10:40:01.456Z,1014.80
2022-08-09T10:41:01.485Z,1014.76
2022-08-09T10:42:01.398Z,1014.80
2022-08-09T10:43:01.549Z,1014.87
2022-08-09T10:44:02.311Z,1014.82
2022-08-09T10:45:01.425Z,1014.77
2022-08-09T10:46:02.113Z,1014.85
2022-08-09T10:47:03.779Z,1014.83
2022-08-09T10:48:22.598Z,1014.87
2022-08-09T10:49:01.362Z,1014.89
2022-08-09T10:50:01.361Z,1014.83
2022-08-09T10:51:01.366Z,1014.87
2022-08-09T10:52:01.381Z,1014.95
2022-08-09T10:53:01.852Z,1014.93
2022-08-09T10:54:02.010Z,1014.97
2022-08-09T10:55:01.348Z,1015.03
2022-08-09T10:56:01.338Z,1015.02
2022-08-09T10:57:01.339Z,1015.01
2022-08-09T10:58:01.330Z,1014.98
2022-08-09T10:59:01.318Z,1014.96
2022-08-09T11:00:01.657Z,1014.93
2022-08-09T11:03:03.325Z,1014.96
2022-08-09T11:03:11.075Z,1014.96
2022-08-09T11:03:13.675Z,1014.98
2022-08-09T11:04:03.956Z,1014.94
2022-08-09T11:05:01.377Z,1014.96
2022-08-09T11:06:01.364Z,1015.01
2022-08-09T11:07:01.615Z,1015.00
2022-08-09T11:08:01.294Z,1014.98
2022-08-09T11:09:15.714Z,1014.99
2022-08-09T11:10:01.253Z,1014.95
2022-08-09T11:11:08.838Z,1014.96
2022-08-09T11:12:01.241Z,1015.00
2022-08-09T11:13:01.234Z,1015.00
2022-08-09T11:14:01.328Z,1015.05
2022-08-09T11:15:01.223Z,1015.02
2022-08-09T11:16:06.609Z,1015.03
2022-08-09T11:17:01.227Z,1015.02
2022-08-09T11:18:03.688Z,1015.05
2022-08-09T11:19:01.195Z,1015.05
2022-08-09T11:20:19.835Z,1015.09
2022-08-09T11:21:01.207Z,1015.10
2022-08-09T11:22:10.413Z,1015.04
2022-08-09T11:23:01.165Z,1015.00
2022-08-09T11:24:01.162Z,1015.04
2022-08-09T11:25:01.357Z,1014.98
2022-08-09T11:26:01.766Z,1014.90
2022-08-09T11:27:03.691Z,1014.89
2022-08-09T11:28:04.000Z,1014.88
2022-08-09T11:29:01.121Z,1014.95
2022-08-09T11:30:05.743Z,1014.86
2022-08-09T11:31:01.114Z,1014.88
2022-08-09T11:32:01.108Z,1014.83
2022-08-09T11:33:01.112Z,1014.87
2022-08-09T11:34:01.131Z,1014.88
2022-08-09T11:35:01.081Z,1014.88
2022-08-09T11:36:01.121Z,1014.84
2022-08-09T11:37:01.082Z,1014.80
2022-08-09T11:38:01.098Z,1014.76
2022-08-09T11:39:01.088Z,1014.80
2022-08-09T11:40:01.121Z,1014.83
2022-08-09T11:41:01.043Z,1014.75
2022-08-09T11:42:01.065Z,1014.76
2022-08-09T11:43:01.074Z,1014.72
2022-08-09T11:44:01.033Z,1014.72
2022-08-09T11:45:01.018Z,1014.70
2022-08-09T11:46:01.016Z,1014.70
2022-08-09T11:47:01.064Z,1014.64
2022-08-09T11:48:11.108Z,1014.65
2022-08-09T11:49:01.001Z,1014.68
2022-08-09T11:50:52.512Z,1014.72
2022-08-09T11:51:38.051Z,1014.67
2022-08-09T11:53:03.586Z,1014.76
2022-08-09T11:53:21.434Z,1014.64
2022-08-09T11:54:03.587Z,1014.61
2022-08-09T11:55:00.959Z,1014.51
2022-08-09T11:56:02.214Z,1014.68
2022-08-09T11:57:00.982Z,1014.72
2022-08-09T11:58:05.934Z,1014.51
2022-08-09T11:59:00.937Z,1014.54
2022-08-09T12:00:00.936Z,1014.55
2022-08-09T12:01:00.950Z,1014.67
2022-08-09T12:02:17.185Z,1014.56
2022-08-09T12:03:09.933Z,1014.58
2022-08-09T12:04:01.046Z,1014.58
2022-08-09T12:05:00.965Z,1014.61
2022-08-09T12:06:00.920Z,1014.61
2022-08-09T12:07:00.939Z,1014.57
2022-08-09T12:08:00.938Z,1014.53
2022-08-09T12:09:01.264Z,1014.54